KBDE

Baudette International Airport

Baudette, Minnesota, USA
METAR KBDE 231453Z AUTO 19006KT 10SM CLR 23/14 A3009 RMK AO2 SLP188 T02280139 58001
Observed Flight Rules
May-23 @ 14:53 UTC (13 minutes ago) Visual Flight Rules
Wind Visibility Clouds
190° at 6 knots 10 miles
  • Clear skies
Temperatures Readings
Current 23°C / 73°F
Dewpoint 14°C / 57°F
Humidity 57%
Altimeter 30.09" Hg
Pressure 1018.8 hPa
Elevation 329
METAR KBDE 231453Z AUTO 19006KT 10SM CLR 23/14 A3009 RMK AO2 SLP188 T02280139 58001
Observed Flight Rules
May-23 @ 14:53 UTC
(13 minutes ago)
VFR
Wind Visibility
190° at 6 knots 10 miles
Clouds
  • Clear skies
Temperature Dewpoint
23°C / 73°F 14°C / 57°F
Humidity Altimeter Pressure
57% 30.09" Hg 1018.8 hPa